Time;durP1;ratioP1;P1;durP2;ratioP2;P2;SDS_P1;SDS_P2;PMS_P1;PMS_P2;Temp;Humidity;BMP_temperature;BMP_pressure;BME280_temperature;BME280_humidity;BME280_pressure;Samples;Min_cycle;Max_cycle;Signal;HPM_P1;HPM_P2
2023/12/06 00:02:13;;;;;;;8.93;6.90;;;19.50;63.40;;;;;;5033913;28;20498;-26
2023/12/06 00:04:40;;;;;;;9.20;7.53;;;20.00;64.20;;;;;;5033741;28;20053;-26
2023/12/06 00:07:07;;;;;;;9.90;7.82;;;;;;;;;;5033678;28;20053;-30
2023/12/06 00:09:34;;;;;;;9.25;7.13;;;20.80;64.60;;;;;;5033641;28;20054;-27
2023/12/06 00:12:02;;;;;;;9.55;7.20;;;19.80;43.40;;;;;;5033712;28;20052;-31
2023/12/06 00:14:29;;;;;;;9.60;7.43;;;;;;;;;;5037819;28;20049;-27
2023/12/06 00:16:56;;;;;;;8.40;6.90;;;19.90;64.30;;;;;;5033348;28;20107;-26
2023/12/06 00:19:23;;;;;;;8.82;6.82;;;;;;;;;;5033391;28;20045;-27
2023/12/06 00:21:50;;;;;;;9.82;7.43;;;19.00;64.00;;;;;;5033397;28;20049;-27
2023/12/06 00:24:17;;;;;;;9.65;8.05;;;;;;;;;;5033573;28;20046;-28
2023/12/06 00:26:46;;;;;;;9.07;7.00;;;19.70;64.50;;;;;;5033045;28;20506;-27
2023/12/06 00:29:14;;;;;;;9.80;6.75;;;20.00;64.20;;;;;;5033494;28;20095;-27
2023/12/06 00:31:41;;;;;;;8.70;7.30;;;19.80;58.40;;;;;;5032676;28;20049;-27
2023/12/06 00:34:08;;;;;;;7.93;6.95;;;19.20;49.90;;;;;;5033407;28;20053;-28
2023/12/06 00:36:35;;;;;;;9.52;7.75;;;19.80;64.30;;;;;;5032597;28;20124;-26
2023/12/06 00:39:02;;;;;;;8.77;7.00;;;;;;;;;;5033335;28;20046;-29
2023/12/06 00:41:29;;;;;;;8.98;7.05;;;18.80;63.90;;;;;;5033141;28;20129;-26
2023/12/06 00:43:56;;;;;;;9.40;7.07;;;18.40;48.70;;;;;;5032894;28;20453;-27
2023/12/06 00:46:25;;;;;;;9.07;7.30;;;18.50;64.00;;;;;;5032859;28;20507;-27
2023/12/06 00:48:52;;;;;;;8.65;7.35;;;;;;;;;;5032342;28;20076;-29
2023/12/06 00:51:19;;;;;;;9.85;8.23;;;19.20;64.30;;;;;;5032968;28;20494;-27
2023/12/06 00:53:46;;;;;;;10.13;8.05;;;;;;;;;;5032911;28;20092;-29
2023/12/06 00:56:13;;;;;;;9.00;7.63;;;18.90;64.50;;;;;;5032513;28;20498;-26
2023/12/06 00:58:41;;;;;;;8.95;7.25;;;19.40;43.70;;;;;;5032604;28;20072;-30
2023/12/06 01:01:08;;;;;;;9.13;7.45;;;;;;;;;;5032169;28;20045;-28
2023/12/06 01:03:36;;;;;;;9.82;7.75;;;19.10;58.40;;;;;;5033000;28;20180;-30
2023/12/06 01:06:03;;;;;;;9.23;7.60;;;19.30;64.30;;;;;;5031984;28;20560;-31
2023/12/06 01:08:30;;;;;;;8.60;7.32;;;18.80;64.20;;;;;;5032818;28;20045;-35
2023/12/06 01:10:57;;;;;;;9.77;7.95;;;19.10;52.50;;;;;;5032593;28;20083;-29
2023/12/06 01:13:24;;;;;;;9.48;7.85;;;20.00;64.90;;;;;;5032205;28;20049;-27
2023/12/06 01:15:51;;;;;;;9.02;7.22;;;18.90;43.90;;;;;;5032227;28;20597;-28
2023/12/06 01:18:18;;;;;;;8.65;7.20;;;19.50;64.80;;;;;;5032618;28;20100;-26
2023/12/06 01:20:46;;;;;;;9.80;7.35;;;18.40;64.30;;;;;;5032525;28;20061;-27
2023/12/06 01:23:13;;;;;;;9.00;7.32;;;;;;;;;;5032362;28;20061;-29
2023/12/06 01:25:40;;;;;;;9.98;7.50;;;18.20;64.20;;;;;;5032045;28;20045;-31
2023/12/06 01:28:07;;;;;;;10.05;8.18;;;;;;;;;;5032376;28;20053;-31
2023/12/06 01:30:34;;;;;;;9.50;7.65;;;18.70;64.60;;;;;;5032084;28;20049;-30
2023/12/06 01:33:01;;;;;;;9.77;7.93;;;19.40;65.40;;;;;;5032426;28;20119;-30
2023/12/06 01:35:28;;;;;;;8.80;7.80;;;;;;;;;;5032097;28;20081;-32
2023/12/06 01:37:56;;;;;;;10.02;7.80;;;19.70;65.30;;;;;;5031424;28;20049;-28
2023/12/06 01:40:24;;;;;;;8.48;7.20;;;;;;;;;;5031896;28;20045;-28
2023/12/06 01:42:51;;;;;;;9.63;7.80;;;19.00;65.30;;;;;;5031881;28;20049;-26
2023/12/06 01:45:18;;;;;;;9.23;7.40;;;;;;;;;;5031997;28;20072;-29
2023/12/06 01:47:45;;;;;;;9.50;7.40;;;19.30;55.60;;;;;;5031822;28;20581;-28
2023/12/06 01:50:11;;;;;;;9.27;7.03;;;18.90;65.10;;;;;;5032103;28;20543;-33
2023/12/06 01:52:38;;;;;;;8.80;7.40;;;18.50;59.80;;;;;;5031792;28;20560;-27
2023/12/06 01:55:07;;;;;;;10.15;7.72;;;19.10;65.20;;;;;;5031823;28;20057;-27
2023/12/06 01:57:35;;;;;;;9.45;7.50;;;19.20;47.00;;;;;;5031375;28;20057;-30
2023/12/06 02:00:04;;;;;;;9.55;7.45;;;19.20;65.70;;;;;;5032030;28;20057;-32
2023/12/06 02:02:30;;;;;;;9.80;7.82;;;19.10;56.50;;;;;;5032052;28;20086;-27
2023/12/06 02:04:57;;;;;;;10.27;7.55;;;19.30;65.40;;;;;;5031920;28;20053;-31
2023/12/06 02:07:24;;;;;;;9.40;7.53;;;;;;;;;;5031580;28;20580;-29
2023/12/06 02:09:51;;;;;;;8.95;6.75;;;18.00;64.90;;;;;;5031214;28;20445;-31
2023/12/06 02:12:20;;;;;;;9.95;7.40;;;18.70;54.20;;;;;;5033184;28;20619;-33
2023/12/06 02:14:47;;;;;;;9.13;7.10;;;;;;;;;;5035979;28;20053;-31
2023/12/06 02:17:14;;;;;;;9.13;7.18;;;19.00;44.10;;;;;;5035725;28;20061;-32
2023/12/06 02:19:41;;;;;;;8.30;6.65;;;;;;;;;;5035360;28;20502;-30
2023/12/06 02:22:08;;;;;;;9.82;7.10;;;18.70;65.20;;;;;;5036064;28;20453;-30
2023/12/06 02:24:35;;;;;;;8.63;7.20;;;17.20;42.90;;;;;;5035565;28;20568;-31
2023/12/06 02:27:03;;;;;;;8.02;6.43;;;19.30;65.20;;;;;;5035162;28;20049;-29
2023/12/06 02:29:30;;;;;;;8.73;6.65;;;18.20;55.80;;;;;;5035479;28;20111;-32
2023/12/06 02:31:57;;;;;;;9.65;6.53;;;;;;;;;;5035660;28;20045;-31
2023/12/06 02:34:25;;;;;;;8.18;6.55;;;19.10;64.90;;;;;;5035522;28;20041;-32
2023/12/06 02:36:54;;;;;;;10.23;7.15;;;18.90;64.70;;;;;;5034814;28;20095;-32
2023/12/06 02:39:21;;;;;;;8.30;6.65;;;19.40;65.00;;;;;;5035353;28;20053;-34
2023/12/06 02:41:48;;;;;;;8.38;6.50;;;19.60;65.50;;;;;;5035688;28;20079;-32
2023/12/06 02:44:16;;;;;;;7.75;6.47;;;19.10;64.90;;;;;;5034863;28;20056;-31
2023/12/06 02:46:43;;;;;;;7.28;6.45;;;19.30;65.30;;;;;;5035187;28;20058;-32
2023/12/06 02:49:10;;;;;;;7.55;6.30;;;19.70;50.20;;;;;;5035427;28;20057;-27
2023/12/06 02:51:37;;;;;;;8.80;6.85;;;19.00;64.90;;;;;;5035269;28;20054;-27
2023/12/06 02:54:04;;;;;;;8.40;6.32;;;;;;;;;;5034985;28;20462;-30
2023/12/06 02:56:31;;;;;;;8.25;6.20;;;19.80;65.20;;;;;;5035062;28;20045;-25
2023/12/06 02:58:58;;;;;;;7.15;6.00;;;19.80;64.80;;;;;;5034979;28;20041;-26
2023/12/06 03:01:26;;;;;;;7.13;6.03;;;20.00;65.10;;;;;;5035074;28;20049;-29
2023/12/06 03:03:53;;;;;;;7.53;6.20;;;19.50;47.60;;;;;;5035047;28;20063;-30
2023/12/06 03:06:20;;;;;;;7.88;6.43;;;;;;;;;;5034564;28;20099;-27
2023/12/06 03:08:47;;;;;;;7.05;5.95;;;19.60;62.90;;;;;;5035046;28;20045;-34
2023/12/06 03:11:13;;;;;;;7.15;5.68;;;19.80;64.90;;;;;;5034619;28;20107;-33
2023/12/06 03:13:40;;;;;;;7.63;6.00;;;19.30;43.70;;;;;;5034789;28;20453;-27
2023/12/06 03:16:08;;;;;;;7.47;5.60;;;19.60;64.60;;;;;;5034335;28;20556;-26
2023/12/06 03:18:36;;;;;;;7.28;5.85;;;19.70;64.40;;;;;;5034676;28;20498;-26
2023/12/06 03:21:04;;;;;;;7.15;5.75;;;19.10;64.20;;;;;;5034617;28;20054;-31
2023/12/06 03:23:31;;;;;;;7.20;5.60;;;;;;;;;;5034052;28;20103;-28
2023/12/06 03:25:58;;;;;;;7.07;5.70;;;19.60;49.40;;;;;;5034527;28;20049;-27
2023/12/06 03:28:25;;;;;;;7.65;5.93;;;;;;;;;;5034258;28;20115;-29
2023/12/06 03:30:52;;;;;;;7.13;5.80;;;20.00;64.60;;;;;;5034594;28;20096;-36
2023/12/06 03:33:18;;;;;;;6.78;5.63;;;19.90;64.40;;;;;;5034705;28;20599;-34
2023/12/06 03:35:47;;;;;;;7.10;5.68;;;19.80;59.70;;;;;;5034220;28;20772;-27
2023/12/06 03:38:14;;;;;;;7.30;6.15;;;;;;;;;;5053508;28;20130;-29
2023/12/06 03:40:41;;;;;;;7.03;5.78;;;20.20;64.30;;;;;;5053425;28;20625;-27
2023/12/06 03:43:07;;;;;;;6.30;5.50;;;19.70;58.10;;;;;;5054316;28;20095;-28
2023/12/06 03:45:35;;;;;;;7.05;5.95;;;18.70;63.50;;;;;;5054046;28;20049;-26
2023/12/06 03:48:02;;;;;;;7.25;5.80;;;20.00;64.10;;;;;;5036109;28;20060;-25
2023/12/06 03:50:29;;;;;;;7.38;5.55;;;19.60;63.90;;;;;;5054074;28;20099;-25
2023/12/06 03:52:57;;;;;;;6.80;5.57;;;20.20;46.10;;;;;;5053968;28;20053;-28
2023/12/06 03:55:24;;;;;;;7.55;5.70;;;19.80;52.10;;;;;;5054080;28;20048;-26
2023/12/06 03:57:51;;;;;;;6.68;5.63;;;20.40;64.20;;;;;;5049181;28;20090;-31
2023/12/06 04:00:18;;;;;;;7.38;5.82;;;;;;;;;;5050048;28;20083;-32
2023/12/06 04:02:45;;;;;;;7.47;6.10;;;20.50;64.60;;;;;;5053507;28;20109;-25
2023/12/06 04:05:13;;;;;;;7.72;6.32;;;;;;;;;;5054071;28;20045;-29
2023/12/06 04:07:40;;;;;;;7.13;6.00;;;20.00;43.30;;;;;;5053698;28;20092;-29
2023/12/06 04:10:09;;;;;;;7.38;6.00;;;19.50;64.00;;;;;;5053520;28;20049;-31
2023/12/06 04:12:36;;;;;;;6.90;5.50;;;19.80;64.10;;;;;;5053024;28;20041;-33
2023/12/06 04:15:04;;;;;;;7.07;5.78;;;20.20;64.30;;;;;;5053302;28;20460;-31
2023/12/06 04:17:31;;;;;;;6.72;5.80;;;20.00;64.00;;;;;;5053365;28;20041;-25
2023/12/06 04:19:58;;;;;;;6.97;5.65;;;;;;;;;;5053293;28;20575;-27
2023/12/06 04:22:25;;;;;;;6.50;5.10;;;20.00;44.80;;;;;;5053645;28;20045;-31
2023/12/06 04:24:54;;;;;;;7.35;6.00;;;;;;;;;;5053118;28;20141;-28
2023/12/06 04:27:22;;;;;;;6.43;5.50;;;20.10;43.30;;;;;;5053225;28;20099;-28
2023/12/06 04:29:49;;;;;;;7.35;6.30;;;;;;;;;;5051694;28;20568;-26
2023/12/06 04:32:16;;;;;;;5.88;4.95;;;20.00;64.00;;;;;;5053306;28;20494;-25
2023/12/06 04:34:48;;;;;;;6.75;5.50;;;20.10;43.20;;;;;;5052282;28;20107;-30
2023/12/06 04:37:15;;;;;;;7.03;5.60;;;20.00;64.30;;;;;;5052225;28;20053;-27
2023/12/06 04:39:41;;;;;;;7.05;5.10;;;21.00;64.30;;;;;;5053147;28;20059;-31
2023/12/06 04:42:08;;;;;;;6.30;5.40;;;19.90;59.00;;;;;;5053014;28;20486;-32
2023/12/06 04:44:36;;;;;;;6.85;5.40;;;20.50;44.50;;;;;;5053203;28;20049;-26
2023/12/06 04:47:03;;;;;;;6.68;5.13;;;20.60;50.80;;;;;;5034389;28;20053;-27
2023/12/06 04:49:31;;;;;;;6.60;5.50;;;;;;;;;;5032905;28;20049;-28
2023/12/06 04:51:58;;;;;;;5.80;4.85;;;20.20;53.60;;;;;;5032995;28;20495;-33
2023/12/06 04:54:25;;;;;;;6.43;5.22;;;;;;;;;;5032673;28;20053;-28
2023/12/06 04:56:52;;;;;;;6.25;5.32;;;20.00;63.80;;;;;;5050669;28;20087;-31
2023/12/06 04:59:19;;;;;;;6.95;5.45;;;19.80;54.80;;;;;;5041794;28;20053;-26
2023/12/06 05:01:47;;;;;;;6.57;5.15;;;20.10;60.60;;;;;;5034692;28;20049;-27
2023/12/06 05:04:14;;;;;;;6.25;5.28;;;19.90;64.00;;;;;;5034777;28;20049;-33
2023/12/06 05:06:41;;;;;;;7.03;5.10;;;;;;;;;;5032439;28;20053;-32
2023/12/06 05:09:08;;;;;;;6.90;5.30;;;19.90;58.40;;;;;;5036464;28;20115;-28
2023/12/06 05:11:35;;;;;;;6.78;5.47;;;20.20;64.30;;;;;;5032749;28;20053;-31
2023/12/06 05:14:03;;;;;;;6.47;5.05;;;;;;;;;;5032594;28;20400;-28
2023/12/06 05:16:29;;;;;;;6.55;5.35;;;19.80;63.60;;;;;;5031806;28;20085;-26
2023/12/06 05:18:58;;;;;;;5.97;4.88;;;20.50;46.00;;;;;;5033615;28;20042;-29
2023/12/06 05:21:24;;;;;;;5.72;4.75;;;20.40;56.70;;;;;;5032521;28;20103;-26
2023/12/06 05:23:52;;;;;;;6.10;5.00;;;19.30;48.00;;;;;;5032480;28;20390;-26
2023/12/06 05:26:19;;;;;;;6.13;5.03;;;20.20;63.50;;;;;;5032005;28;20495;-27
2023/12/06 05:28:46;;;;;;;6.88;4.90;;;;;;;;;;5041077;28;20057;-32
2023/12/06 05:31:13;;;;;;;7.32;5.10;;;20.00;63.80;;;;;;5052248;28;20571;-26
2023/12/06 05:33:40;;;;;;;5.72;4.78;;;19.80;63.70;;;;;;5052042;28;20126;-28
2023/12/06 05:36:09;;;;;;;5.88;4.45;;;20.10;58.90;;;;;;5040675;28;20525;-27
2023/12/06 05:38:36;;;;;;;5.70;4.22;;;20.70;59.10;;;;;;5052221;28;20604;-29
2023/12/06 05:41:03;;;;;;;5.60;4.38;;;20.10;43.80;;;;;;5051912;28;20072;-29
2023/12/06 05:43:32;;;;;;;5.47;4.40;;;20.10;43.10;;;;;;5052250;28;20049;-32
2023/12/06 05:45:59;;;;;;;5.75;4.32;;;19.70;51.20;;;;;;5051835;28;20106;-32
2023/12/06 05:48:26;;;;;;;6.05;4.80;;;19.90;63.60;;;;;;5051828;28;20045;-32
2023/12/06 05:50:53;;;;;;;6.32;4.50;;;;;;;;;;5048038;28;20041;-32
2023/12/06 05:53:22;;;;;;;5.25;4.20;;;20.00;64.00;;;;;;5049495;28;20075;-27
2023/12/06 05:55:49;;;;;;;4.30;3.70;;;;;;;;;;5051854;28;20068;-29
2023/12/06 05:58:16;;;;;;;5.47;3.70;;;20.50;64.10;;;;;;5049133;28;20572;-33
2023/12/06 06:00:43;;;;;;;4.07;3.55;;;;;;;;;;5031980;28;20050;-28
2023/12/06 06:03:10;;;;;;;5.03;4.10;;;21.00;64.20;;;;;;5031405;28;20544;-27
2023/12/06 06:05:37;;;;;;;4.97;3.65;;;20.20;64.20;;;;;;5031866;28;20111;-27
2023/12/06 06:08:05;;;;;;;4.63;3.85;;;20.10;64.00;;;;;;5032846;28;20453;-33
2023/12/06 06:10:33;;;;;;;4.25;3.70;;;19.90;46.10;;;;;;5032192;28;20084;-30
2023/12/06 06:13:00;;;;;;;5.82;3.90;;;20.20;53.40;;;;;;5051612;28;20498;-32
2023/12/06 06:15:27;;;;;;;5.78;3.75;;;20.10;64.20;;;;;;5051561;28;20449;-31
2023/12/06 06:17:54;;;;;;;4.72;3.70;;;;;;;;;;5051067;28;20057;-30
2023/12/06 06:20:21;;;;;;;4.43;3.78;;;;;;;;;;5051483;28;20095;-34
2023/12/06 06:22:48;;;;;;;4.43;3.33;;;;;;;;;;5051585;28;20405;-29
2023/12/06 06:25:15;;;;;;;4.95;3.20;;;19.90;63.60;;;;;;5046841;28;20427;-32
2023/12/06 06:27:43;;;;;;;4.40;3.70;;;21.90;44.10;;;;;;5040979;28;20045;-28
2023/12/06 06:30:11;;;;;;;4.18;3.65;;;20.20;43.10;;;;;;5041123;28;20095;-28
2023/12/06 06:32:39;;;;;;;4.47;4.00;;;;;;;;;;5036793;28;20056;-28
2023/12/06 06:35:07;;;;;;;3.88;3.47;;;19.40;63.80;;;;;;5031688;28;20050;-33
2023/12/06 06:37:34;;;;;;;4.15;3.40;;;20.20;64.10;;;;;;5045126;28;20128;-26
2023/12/06 06:40:02;;;;;;;3.83;3.22;;;20.20;64.10;;;;;;5050750;28;20480;-28
2023/12/06 06:42:29;;;;;;;3.92;3.42;;;20.70;59.50;;;;;;5049444;28;20414;-31
2023/12/06 06:44:57;;;;;;;4.38;3.28;;;20.30;52.90;;;;;;5049793;28;20061;-26
2023/12/06 06:47:27;;;;;;;4.15;3.33;;;20.40;63.90;;;;;;5039624;28;20426;-25
2023/12/06 06:49:54;;;;;;;4.30;3.50;;;19.90;63.60;;;;;;5036568;28;20060;-32
2023/12/06 06:52:21;;;;;;;4.28;3.40;;;19.80;61.80;;;;;;5033941;28;20056;-32
2023/12/06 06:54:48;;;;;;;4.30;3.30;;;20.60;64.40;;;;;;5051067;28;20048;-32
2023/12/06 06:57:15;;;;;;;4.05;3.15;;;;;;;;;;5051114;28;20045;-29
2023/12/06 06:59:42;;;;;;;4.15;3.40;;;19.40;63.40;;;;;;5040296;28;20045;-33
2023/12/06 07:02:11;;;;;;;4.38;3.10;;;20.20;43.10;;;;;;5035258;28;20057;-29
2023/12/06 07:04:38;;;;;;;4.35;3.33;;;20.70;64.40;;;;;;5034652;28;20053;-32
2023/12/06 07:07:05;;;;;;;4.03;2.95;;;19.00;63.30;;;;;;5040229;28;20049;-32
2023/12/06 07:09:32;;;;;;;4.95;3.60;;;19.50;63.70;;;;;;5052264;28;20102;-26
2023/12/06 07:11:59;;;;;;;4.88;3.40;;;;;;;;;;5054537;28;20049;-27
2023/12/06 07:14:26;;;;;;;3.72;3.05;;;19.80;57.80;;;;;;5054638;28;20045;-26
2023/12/06 07:16:54;;;;;;;3.58;2.97;;;21.10;64.30;;;;;;5054240;28;20045;-25
2023/12/06 07:19:22;;;;;;;4.63;3.20;;;20.30;43.20;;;;;;5047810;28;20559;-27
2023/12/06 07:21:49;;;;;;;3.58;2.80;;;20.50;63.90;;;;;;5043907;28;20081;-33
2023/12/06 07:24:16;;;;;;;3.75;2.85;;;;;;;;;;5054690;28;20053;-28
2023/12/06 07:26:43;;;;;;;5.57;3.20;;;20.70;64.20;;;;;;5053887;28;20064;-32
2023/12/06 07:29:10;;;;;;;3.50;2.95;;;;;;;;;;5054458;28;20136;-30
2023/12/06 07:31:37;;;;;;;3.80;3.03;;;20.50;64.00;;;;;;5054575;28;20103;-27
2023/12/06 07:34:04;;;;;;;4.22;3.20;;;21.70;52.30;;;;;;5038808;28;20436;-27
2023/12/06 07:36:32;;;;;;;4.50;3.13;;;20.30;63.70;;;;;;5041567;28;20457;-26
2023/12/06 07:38:59;;;;;;;3.55;3.08;;;19.60;51.90;;;;;;5043950;28;20045;-25
2023/12/06 07:41:26;;;;;;;3.58;2.90;;;;;;;;;;5051083;28;20403;-30
2023/12/06 07:43:53;;;;;;;4.05;2.83;;;20.20;54.10;;;;;;5043938;28;20049;-31
2023/12/06 07:46:20;;;;;;;4.28;2.95;;;20.70;63.30;;;;;;5040298;28;20102;-31
2023/12/06 07:48:48;;;;;;;3.70;3.30;;;;;;;;;;5041896;28;20081;-32
2023/12/06 07:51:15;;;;;;;5.30;3.25;;;21.40;49.10;;;;;;5042653;28;20490;-32
2023/12/06 07:53:43;;;;;;;3.85;2.80;;;20.90;63.20;;;;;;5043980;28;20076;-31
2023/12/06 07:56:11;;;;;;;3.60;3.00;;;;;;;;;;5032348;28;20475;-34
2023/12/06 07:58:39;;;;;;;3.63;2.72;;;;;;;;;;5032729;28;20046;-33
2023/12/06 08:01:06;;;;;;;4.20;2.80;;;21.10;63.20;;;;;;5033609;28;20433;-30
2023/12/06 08:03:33;;;;;;;3.47;2.78;;;;;;;;;;5033675;28;20069;-30
2023/12/06 08:06:01;;;;;;;3.03;2.53;;;21.20;63.30;;;;;;5033048;28;20046;-31
2023/12/06 08:08:29;;;;;;;2.88;2.60;;;;;;;;;;5041632;28;20049;-27
2023/12/06 08:10:57;;;;;;;5.20;3.08;;;21.00;42.90;;;;;;5037623;28;20049;-29
2023/12/06 08:13:24;;;;;;;4.30;3.00;;;21.90;67.20;;;;;;5043890;28;20048;-29
2023/12/06 08:15:51;;;;;;;7.25;2.90;;;20.20;63.30;;;;;;5042161;28;20075;-31
2023/12/06 08:18:18;;;;;;;7.50;2.97;;;20.90;55.60;;;;;;5050377;28;20506;-31
2023/12/06 08:20:45;;;;;;;4.50;3.10;;;;;;;;;;5053176;28;20494;-30
2023/12/06 08:23:12;;;;;;;3.83;3.00;;;21.70;48.40;;;;;;5052736;28;20502;-33
2023/12/06 08:25:40;;;;;;;4.93;2.80;;;;;;;;;;5053213;28;20057;-33
2023/12/06 08:28:08;;;;;;;3.28;2.80;;;20.80;63.70;;;;;;5052825;28;20052;-32
2023/12/06 08:30:36;;;;;;;4.25;3.05;;;;;;;;;;5053153;28;20041;-30
2023/12/06 08:33:03;;;;;;;3.75;2.72;;;21.20;63.60;;;;;;5052789;28;20498;-33
2023/12/06 08:35:30;;;;;;;4.90;3.00;;;21.00;55.30;;;;;;5052884;28;20045;-33
2023/12/06 08:37:57;;;;;;;4.07;2.90;;;21.10;63.90;;;;;;5052164;28;20049;-29
2023/12/06 08:40:26;;;;;;;3.58;2.95;;;;;;;;;;5046880;28;20049;-29
2023/12/06 08:42:53;;;;;;;3.55;2.75;;;22.00;64.20;;;;;;5032867;28;20128;-29
2023/12/06 08:45:21;;;;;;;3.72;2.80;;;21.30;43.40;;;;;;5032715;28;20045;-29
2023/12/06 08:47:48;;;;;;;3.80;2.47;;;22.00;63.90;;;;;;5032877;28;20527;-32
2023/12/06 08:50:15;;;;;;;3.70;2.70;;;21.70;64.00;;;;;;5032626;28;20057;-31
2023/12/06 08:52:44;;;;;;;3.22;2.60;;;;;;;;;;5032983;28;20077;-29
2023/12/06 08:55:11;;;;;;;3.70;2.72;;;21.30;54.50;;;;;;5032442;28;20045;-33
2023/12/06 08:57:38;;;;;;;4.30;2.63;;;21.30;63.40;;;;;;5032276;28;20061;-32
2023/12/06 09:00:07;;;;;;;4.15;2.70;;;21.30;44.10;;;;;;5032618;28;20104;-33
2023/12/06 09:02:35;;;;;;;3.80;2.38;;;21.50;63.90;;;;;;5032886;28;20053;-32
2023/12/06 09:05:02;;;;;;;3.90;2.80;;;22.10;63.70;;;;;;5032657;28;20045;-32
2023/12/06 09:07:29;;;;;;;3.25;2.60;;;22.10;58.70;;;;;;5033489;28;20118;-31
2023/12/06 09:09:56;;;;;;;4.18;2.50;;;22.10;64.60;;;;;;5040822;28;20509;-30
2023/12/06 09:12:23;;;;;;;4.30;2.72;;;;;;;;;;5040996;28;20433;-29
2023/12/06 09:14:50;;;;;;;3.97;2.58;;;20.80;46.70;;;;;;5041317;28;20479;-26
2023/12/06 09:17:17;;;;;;;4.25;2.75;;;21.30;45.90;;;;;;5042305;28;20518;-28
2023/12/06 09:19:45;;;;;;;3.15;2.47;;;21.80;63.40;;;;;;5041214;28;20048;-26
2023/12/06 09:22:14;;;;;;;3.42;2.60;;;21.30;58.90;;;;;;5032949;28;20049;-26
2023/12/06 09:24:42;;;;;;;3.45;2.40;;;22.10;49.30;;;;;;5032030;28;20080;-27
2023/12/06 09:27:09;;;;;;;3.30;2.90;;;22.00;63.50;;;;;;5032165;28;20068;-26
2023/12/06 09:29:36;;;;;;;3.22;2.60;;;21.20;56.70;;;;;;5031717;28;20053;-27
2023/12/06 09:32:04;;;;;;;3.47;2.50;;;21.90;64.30;;;;;;5032447;28;20057;-26
2023/12/06 09:34:31;;;;;;;3.40;2.50;;;21.70;63.30;;;;;;5031832;28;20045;-26
2023/12/06 09:36:59;;;;;;;3.58;2.65;;;21.80;50.30;;;;;;5031889;28;20061;-28
2023/12/06 09:39:26;;;;;;;3.40;2.50;;;21.20;56.40;;;;;;5031748;28;20487;-28
2023/12/06 09:41:53;;;;;;;3.05;2.47;;;21.60;64.10;;;;;;5032021;28;20096;-26
2023/12/06 09:44:20;;;;;;;5.15;2.60;;;;;;;;;;5031733;28;20049;-31
2023/12/06 09:46:47;;;;;;;3.05;2.50;;;;;;;;;;5031580;28;20057;-28
2023/12/06 09:49:15;;;;;;;3.33;2.80;;;;;;;;;;5032016;28;20049;-29
2023/12/06 09:51:42;;;;;;;3.53;2.50;;;21.40;43.10;;;;;;5031698;28;20053;-27
2023/12/06 09:54:10;;;;;;;2.88;2.30;;;21.00;63.10;;;;;;5032081;28;20072;-27
2023/12/06 09:56:37;;;;;;;2.90;2.38;;;21.20;62.70;;;;;;5013553;28;20064;-27
2023/12/06 09:59:04;;;;;;;3.50;2.50;;;22.20;64.20;;;;;;5031526;28;20049;-27
2023/12/06 10:01:31;;;;;;;2.92;2.40;;;;;;;;;;5031061;28;20410;-27
2023/12/06 10:03:58;;;;;;;3.33;2.50;;;23.10;63.70;;;;;;5031979;28;20053;-27
2023/12/06 10:06:26;;;;;;;2.80;2.10;;;;;;;;;;5031958;28;20556;-27
2023/12/06 10:08:54;;;;;;;2.72;2.38;;;21.80;43.10;;;;;;5031132;28;20051;-27
2023/12/06 10:11:24;;;;;;;3.13;2.53;;;22.40;63.20;;;;;;5031676;28;20491;-31
2023/12/06 10:13:51;;;;;;;3.38;2.28;;;22.10;63.10;;;;;;5030161;28;20049;-31
2023/12/06 10:16:19;;;;;;;2.97;2.22;;;22.00;54.50;;;;;;5031668;28;20111;-32
2023/12/06 10:18:47;;;;;;;2.67;2.20;;;21.80;43.00;;;;;;5031465;28;20045;-30
2023/12/06 10:21:14;;;;;;;3.20;2.40;;;21.30;62.70;;;;;;5039670;28;20564;-31
2023/12/06 10:23:41;;;;;;;5.72;2.47;;;21.30;49.80;;;;;;5041178;28;20494;-33
2023/12/06 10:26:12;;;;;;;3.75;2.42;;;22.20;62.90;;;;;;5041746;28;20049;-26
2023/12/06 10:28:41;;;;;;;3.33;2.30;;;21.70;44.60;;;;;;5040251;28;20049;-29
2023/12/06 10:31:08;;;;;;;3.15;2.13;;;21.60;50.30;;;;;;5040326;28;20041;-27
2023/12/06 10:33:35;;;;;;;3.53;2.42;;;21.60;62.60;;;;;;5043828;28;20502;-28
2023/12/06 10:36:02;;;;;;;3.03;2.20;;;21.60;50.10;;;;;;5042535;28;20096;-26
2023/12/06 10:38:29;;;;;;;5.10;2.20;;;;;;;;;;5025167;28;20472;-26
2023/12/06 10:40:58;;;;;;;3.08;2.28;;;22.30;63.10;;;;;;5034824;28;20133;-26
2023/12/06 10:43:25;;;;;;;2.55;2.20;;;21.60;62.30;;;;;;5035072;28;20037;-27
2023/12/06 10:45:53;;;;;;;3.53;2.50;;;21.90;42.70;;;;;;5034771;28;20049;-30
2023/12/06 10:48:20;;;;;;;3.25;2.50;;;;;;;;;;5034454;28;20056;-30
2023/12/06 10:50:47;;;;;;;3.08;2.38;;;22.40;63.10;;;;;;5035118;28;20069;-34
2023/12/06 10:53:16;;;;;;;2.92;2.30;;;;;;;;;;5034888;28;20107;-29
2023/12/06 10:55:43;;;;;;;2.50;2.20;;;22.10;62.90;;;;;;5034712;28;20041;-32
2023/12/06 10:58:10;;;;;;;2.80;2.10;;;;;;;;;;5034098;28;20041;-30
2023/12/06 11:00:37;;;;;;;2.78;2.08;;;22.00;46.70;;;;;;5034406;28;20507;-31
2023/12/06 11:03:06;;;;;;;2.72;2.20;;;21.90;42.60;;;;;;5034463;28;20037;-29
2023/12/06 11:05:37;;;;;;;3.20;2.40;;;22.30;46.50;;;;;;5034480;28;20037;-30
2023/12/06 11:08:13;;;;;;;3.00;2.20;;;22.00;42.70;;;;;;5034430;28;20411;-28
2023/12/06 11:10:52;;;;;;;3.38;2.38;;;22.00;42.70;;;;;;5040150;28;20495;-27
2023/12/06 11:13:27;;;;;;;3.78;2.10;;;22.00;62.70;;;;;;5043144;28;20045;-27
2023/12/06 11:15:58;;;;;;;3.00;2.20;;;21.60;62.50;;;;;;5049535;28;20501;-28
2023/12/06 11:18:27;;;;;;;2.30;2.00;;;21.90;62.20;;;;;;5054590;28;20106;-28
2023/12/06 11:20:54;;;;;;;2.58;2.05;;;22.40;62.90;;;;;;5054685;28;20386;-28
2023/12/06 11:23:21;;;;;;;2.80;2.28;;;23.10;58.70;;;;;;5054228;28;20053;-27
2023/12/06 11:25:49;;;;;;;3.30;2.33;;;22.00;42.60;;;;;;5051549;28;20453;-26
2023/12/06 11:28:18;;;;;;;4.47;2.50;;;22.10;62.30;;;;;;5048747;28;20059;-26
2023/12/06 11:30:47;;;;;;;3.25;2.10;;;22.10;42.70;;;;;;5035363;28;20054;-28
2023/12/06 11:33:14;;;;;;;2.83;2.05;;;21.00;61.70;;;;;;5034562;28;20060;-30
2023/12/06 11:35:45;;;;;;;2.90;2.03;;;22.10;42.60;;;;;;5034028;28;20522;-27
2023/12/06 11:38:12;;;;;;;3.00;2.20;;;21.10;61.70;;;;;;5053118;28;20057;-30
2023/12/06 11:40:48;;;;;;;2.67;2.17;;;22.00;62.20;;;;;;5053935;28;20060;-32
2023/12/06 11:43:15;;;;;;;4.03;2.45;;;20.90;46.00;;;;;;5054115;28;20099;-31
2023/12/06 11:45:42;;;;;;;2.47;2.10;;;;;;;;;;5053858;28;20041;-32
2023/12/06 11:48:12;;;;;;;4.40;2.60;;;22.00;61.90;;;;;;5045118;28;20111;-30
2023/12/06 11:50:45;;;;;;;4.10;2.13;;;22.00;61.60;;;;;;5033765;28;20564;-30
2023/12/06 11:53:12;;;;;;;4.28;2.25;;;21.50;61.80;;;;;;5034355;28;20050;-30
2023/12/06 11:55:40;;;;;;;3.10;2.38;;;21.20;61.70;;;;;;5033299;28;20423;-33
2023/12/06 11:58:08;;;;;;;3.38;2.28;;;21.80;57.70;;;;;;5034870;28;20053;-31
2023/12/06 12:00:35;;;;;;;3.28;2.25;;;;;;;;;;5053705;28;20072;-27
2023/12/06 12:03:03;;;;;;;3.30;2.20;;;21.80;51.00;;;;;;5053615;28;20045;-30
2023/12/06 12:05:30;;;;;;;3.97;2.40;;;22.00;63.10;;;;;;5053494;28;20106;-31
2023/12/06 12:08:00;;;;;;;4.03;2.13;;;22.20;42.60;;;;;;5053112;28;20124;-28
2023/12/06 12:10:26;;;;;;;2.97;2.10;;;22.10;47.30;;;;;;5053542;28;20548;-28
2023/12/06 12:12:53;;;;;;;4.97;2.30;;;22.30;63.10;;;;;;5053303;28;20494;-28
2023/12/06 12:15:20;;;;;;;2.63;2.30;;;;;;;;;;5052953;28;20524;-31
2023/12/06 12:17:47;;;;;;;2.65;1.90;;;22.50;63.20;;;;;;5053036;28;20048;-29
2023/12/06 12:20:14;;;;;;;2.90;2.20;;;22.10;62.20;;;;;;5053397;28;20106;-29
2023/12/06 12:22:45;;;;;;;3.78;2.33;;;22.00;62.00;;;;;;5053519;28;20060;-30
2023/12/06 12:25:14;;;;;;;2.50;2.13;;;21.10;63.00;;;;;;5048862;28;20473;-32
2023/12/06 12:27:40;;;;;;;4.05;2.20;;;21.20;61.80;;;;;;5033262;28;20181;-32
2023/12/06 12:30:09;;;;;;;2.10;1.83;;;21.50;58.50;;;;;;5033093;28;20111;-31
2023/12/06 12:32:37;;;;;;;4.65;2.50;;;22.00;62.30;;;;;;5033082;28;20132;-29
2023/12/06 12:35:05;;;;;;;2.58;2.20;;;21.50;45.80;;;;;;5033273;28;20061;-33
2023/12/06 12:37:32;;;;;;;4.97;2.35;;;22.10;62.20;;;;;;5046125;28;20107;-33
2023/12/06 12:40:00;;;;;;;2.65;2.15;;;;;;;;;;5052876;28;20072;-31
2023/12/06 12:42:28;;;;;;;4.65;2.10;;;21.00;61.80;;;;;;5052837;28;20048;-32
2023/12/06 12:44:55;;;;;;;2.70;2.20;;;22.10;62.30;;;;;;5052851;28;20146;-34
2023/12/06 12:47:22;;;;;;;2.67;2.20;;;22.30;58.90;;;;;;5052303;28;20045;-33
2023/12/06 12:49:50;;;;;;;2.90;2.25;;;;;;;;;;5039396;28;20046;-32
2023/12/06 12:52:17;;;;;;;3.72;2.00;;;22.20;62.90;;;;;;5032687;28;20124;-33
2023/12/06 12:54:46;;;;;;;4.05;2.40;;;21.70;53.50;;;;;;5033114;28;20478;-30
2023/12/06 12:57:13;;;;;;;3.03;2.10;;;21.70;62.30;;;;;;5031278;28;20046;-36
2023/12/06 12:59:45;;;;;;;3.38;2.33;;;22.10;50.20;;;;;;5046524;28;20084;-32
2023/12/06 13:02:13;;;;;;;5.75;2.17;;;;;;;;;;5052775;28;20049;-30
2023/12/06 13:04:39;;;;;;;4.03;2.00;;;22.10;62.80;;;;;;5052755;28;20110;-27
2023/12/06 13:07:06;;;;;;;3.05;2.45;;;21.80;53.30;;;;;;5052553;28;20493;-27
2023/12/06 13:09:33;;;;;;;3.00;2.10;;;21.40;62.20;;;;;;5052381;28;20102;-28
2023/12/06 13:12:01;;;;;;;4.32;2.40;;;;;;;;;;5052401;28;20088;-31